Time;durP1;ratioP1;P1;durP2;ratioP2;P2;SDS_P1;SDS_P2;PMS_P1;PMS_P2;Temp;Humidity;BMP_temperature;BMP_pressure;BME280_temperature;BME280_humidity;BME280_pressure;Samples;Min_cycle;Max_cycle;Signal;HPM_P1;HPM_P2
2022/06/29 00:00:07;;;;;;;6.10;2.37;;;16.90;99.90;;;;;;5054745;28;20540;-79
2022/06/29 00:02:33;;;;;;;2.50;2.30;;;16.80;99.90;;;;;;5054424;28;20197;-81
2022/06/29 00:04:58;;;;;;;5.20;2.40;;;16.60;99.90;;;;;;5054606;28;20181;-81
2022/06/29 00:07:24;;;;;;;6.57;2.27;;;16.50;99.90;;;;;;5054607;28;20318;-81
2022/06/29 00:09:50;;;;;;;2.93;2.50;;;16.60;99.90;;;;;;5055736;28;20165;-81
2022/06/29 00:12:15;;;;;;;3.33;2.70;;;16.40;99.90;;;;;;5056492;28;20197;-79
2022/06/29 00:14:44;;;;;;;3.13;2.43;;;16.40;99.90;;;;;;5056525;28;20254;-79
2022/06/29 00:17:11;;;;;;;3.93;2.60;;;16.40;99.90;;;;;;5056549;28;20173;-79
2022/06/29 00:19:38;;;;;;;2.90;2.40;;;16.30;99.90;;;;;;5055766;28;20260;-79
2022/06/29 00:22:04;;;;;;;4.97;2.67;;;16.30;99.90;;;;;;5053610;28;20181;-80
2022/06/29 00:24:31;;;;;;;3.90;2.70;;;16.20;99.90;;;;;;5054022;28;20203;-79
2022/06/29 00:26:57;;;;;;;2.90;2.70;;;16.30;99.90;;;;;;5055022;28;20532;-80
2022/06/29 00:29:23;;;;;;;4.40;2.77;;;16.40;99.90;;;;;;5053664;28;20169;-79
2022/06/29 00:31:49;;;;;;;6.80;3.40;;;16.40;99.90;;;;;;5053012;28;20271;-79
2022/06/29 00:34:14;;;;;;;3.33;3.03;;;16.40;99.90;;;;;;5053804;28;20162;-81
2022/06/29 00:36:40;;;;;;;3.93;2.40;;;16.20;99.90;;;;;;5053659;28;20259;-81
2022/06/29 00:39:06;;;;;;;3.07;2.43;;;16.00;99.90;;;;;;5053512;28;20176;-79
2022/06/29 00:41:40;;;;;;;4.40;2.50;;;16.10;99.90;;;;;;5053110;28;20185;-82
2022/06/29 00:44:09;;;;;;;5.27;2.50;;;16.00;99.90;;;;;;5053693;28;20668;-83
2022/06/29 00:46:36;;;;;;;3.07;2.57;;;15.70;99.90;;;;;;5054196;28;20170;-80
2022/06/29 00:49:02;;;;;;;6.03;2.40;;;16.00;99.90;;;;;;5055339;28;20231;-81
2022/06/29 00:51:31;;;;;;;5.53;2.53;;;15.90;99.90;;;;;;5054720;28;20166;-79
2022/06/29 00:53:59;;;;;;;3.80;2.60;;;15.60;99.90;;;;;;5053218;28;20212;-78
2022/06/29 00:56:25;;;;;;;6.10;2.63;;;15.90;99.90;;;;;;5053666;28;20184;-81
2022/06/29 00:58:55;;;;;;;4.33;2.70;;;15.80;99.90;;;;;;5054774;28;20260;-80
2022/06/29 01:01:20;;;;;;;5.17;3.10;;;15.70;99.90;;;;;;5053763;28;20242;-81
2022/06/29 01:03:46;;;;;;;2.70;2.50;;;15.60;99.90;;;;;;5052468;28;20693;-80
2022/06/29 01:06:12;;;;;;;3.13;2.70;;;15.60;99.90;;;;;;5053297;28;20279;-81
2022/06/29 01:08:37;;;;;;;3.17;2.60;;;15.70;99.90;;;;;;5052927;28;20170;-79
2022/06/29 01:11:03;;;;;;;3.10;2.80;;;15.50;99.90;;;;;;5054345;28;20171;-81
2022/06/29 01:13:29;;;;;;;5.63;2.87;;;15.50;99.90;;;;;;5052882;28;20585;-80
2022/06/29 01:15:55;;;;;;;6.13;2.90;;;15.50;99.90;;;;;;5052994;28;20209;-80
2022/06/29 01:18:20;;;;;;;3.10;2.60;;;15.40;99.90;;;;;;5052928;28;20161;-80
2022/06/29 01:20:46;;;;;;;4.40;3.17;;;15.60;99.90;;;;;;5052574;28;20177;-81
2022/06/29 01:23:12;;;;;;;4.73;2.90;;;15.50;99.90;;;;;;5052821;28;20654;-81
2022/06/29 01:25:38;;;;;;;5.53;3.10;;;15.40;99.90;;;;;;5053024;28;20180;-82
2022/06/29 01:28:04;;;;;;;3.27;2.97;;;15.50;99.90;;;;;;5053871;28;20633;-80
2022/06/29 01:30:30;;;;;;;4.23;3.03;;;15.60;99.90;;;;;;5052482;28;20169;-79
2022/06/29 01:32:55;;;;;;;5.43;2.53;;;15.50;99.90;;;;;;5052588;28;20604;-80
2022/06/29 01:35:23;;;;;;;3.83;2.80;;;15.40;99.90;;;;;;5054497;28;20178;-81
2022/06/29 01:37:49;;;;;;;4.23;2.97;;;15.30;99.90;;;;;;5055159;28;20180;-79
2022/06/29 01:40:15;;;;;;;5.60;2.87;;;15.30;99.90;;;;;;5064353;22;20287;-88
2022/06/29 01:42:41;;;;;;;4.97;3.10;;;15.10;99.90;;;;;;5050861;28;20574;-88
2022/06/29 01:45:08;;;;;;;3.43;3.03;;;15.10;99.90;;;;;;5051426;28;20199;-88
2022/06/29 01:47:34;;;;;;;3.00;2.80;;;15.10;99.90;;;;;;5051472;28;20172;-88
2022/06/29 01:49:59;;;;;;;4.50;2.80;;;15.10;99.90;;;;;;5052652;28;20165;-88
2022/06/29 01:52:25;;;;;;;4.07;3.20;;;14.90;99.90;;;;;;5059382;22;20184;-81
2022/06/29 01:54:50;;;;;;;5.47;3.07;;;14.80;99.90;;;;;;5073349;28;20226;-81
2022/06/29 01:57:16;;;;;;;4.23;3.20;;;14.90;99.90;;;;;;5073929;28;20540;-81
2022/06/29 01:59:42;;;;;;;3.93;3.10;;;14.80;99.90;;;;;;5072917;28;20176;-81
2022/06/29 02:02:08;;;;;;;4.17;3.27;;;14.80;99.90;;;;;;5072509;28;20193;-80
2022/06/29 02:04:33;;;;;;;5.23;3.30;;;15.00;99.90;;;;;;5074024;28;20169;-81
2022/06/29 02:06:59;;;;;;;3.80;3.50;;;14.90;99.90;;;;;;5073899;28;20177;-81
2022/06/29 02:09:25;;;;;;;4.53;3.17;;;14.90;99.90;;;;;;5072776;28;20755;-81
2022/06/29 02:11:51;;;;;;;4.40;3.10;;;15.00;99.90;;;;;;5072373;28;20202;-81
2022/06/29 02:14:16;;;;;;;5.57;3.50;;;14.80;99.90;;;;;;5073152;28;20175;-81
2022/06/29 02:16:42;;;;;;;6.57;3.60;;;14.80;99.90;;;;;;5072954;28;20175;-81
2022/06/29 02:19:08;;;;;;;4.60;3.20;;;14.70;99.90;;;;;;5072647;28;20541;-81
2022/06/29 02:21:33;;;;;;;3.73;3.23;;;14.80;99.90;;;;;;5072753;28;20176;-81
2022/06/29 02:23:59;;;;;;;4.10;3.50;;;14.90;99.90;;;;;;5072942;28;20211;-81
2022/06/29 02:26:25;;;;;;;7.27;3.60;;;14.80;99.90;;;;;;5073064;28;20172;-81
2022/06/29 02:28:50;;;;;;;5.00;3.50;;;14.80;99.90;;;;;;5073031;28;20172;-81
2022/06/29 02:37:01;;;;;;;5.23;4.20;;;14.80;99.90;;;;;;5071822;28;20179;-81
2022/06/29 02:39:28;;;;;;;5.07;4.00;;;14.60;99.90;;;;;;5073123;28;20169;-81
2022/06/29 02:41:53;;;;;;;5.97;3.70;;;14.50;99.90;;;;;;5072996;28;20241;-81
2022/06/29 02:44:19;;;;;;;4.17;3.77;;;14.60;99.90;;;;;;5073289;28;20215;-81
2022/06/29 02:46:44;;;;;;;4.03;3.67;;;14.60;99.90;;;;;;5073611;28;20191;-80
2022/06/29 02:49:10;;;;;;;4.03;3.53;;;14.60;99.90;;;;;;5073270;28;20179;-80
2022/06/29 02:51:36;;;;;;;5.37;4.10;;;14.60;99.90;;;;;;5073286;28;20169;-80
2022/06/29 02:54:01;;;;;;;5.67;4.30;;;14.70;99.90;;;;;;5073212;28;20215;-80
2022/06/29 02:56:27;;;;;;;5.00;3.80;;;14.70;99.90;;;;;;5072439;28;20180;-80
2022/06/29 02:58:53;;;;;;;6.20;3.80;;;14.70;99.90;;;;;;5072927;28;20176;-81
2022/06/29 03:01:18;;;;;;;5.60;3.87;;;14.60;99.90;;;;;;5072513;28;20263;-81
2022/06/29 03:03:45;;;;;;;4.13;3.70;;;14.60;99.90;;;;;;5072450;28;20207;-81
2022/06/29 03:06:10;;;;;;;6.20;3.80;;;14.60;99.90;;;;;;5073253;28;20636;-81
2022/06/29 03:08:36;;;;;;;6.10;4.30;;;14.70;99.90;;;;;;5073317;28;20173;-81
2022/06/29 03:11:02;;;;;;;4.23;3.83;;;14.70;99.90;;;;;;5076070;28;20218;-81
2022/06/29 03:13:28;;;;;;;6.03;4.47;;;14.80;99.90;;;;;;5077092;28;20265;-81
2022/06/29 03:15:53;;;;;;;5.43;4.47;;;14.70;99.90;;;;;;5077074;28;20179;-80
2022/06/29 03:18:19;;;;;;;5.43;4.60;;;14.70;99.90;;;;;;5076898;28;20175;-81
2022/06/29 03:20:45;;;;;;;7.43;4.80;;;14.80;99.90;;;;;;5077311;28;20283;-80
2022/06/29 03:23:10;;;;;;;4.93;4.50;;;14.80;99.90;;;;;;5076609;28;20200;-80
2022/06/29 03:25:36;;;;;;;4.60;4.20;;;14.70;99.90;;;;;;5076735;28;20176;-80
2022/06/29 03:28:02;;;;;;;5.17;4.07;;;14.60;99.90;;;;;;5076627;28;20169;-81
2022/06/29 03:30:27;;;;;;;7.37;4.73;;;14.70;99.90;;;;;;5076411;28;20253;-80
2022/06/29 03:32:53;;;;;;;5.73;4.63;;;14.70;99.90;;;;;;5076259;28;20196;-80
2022/06/29 03:35:19;;;;;;;4.27;3.97;;;14.50;99.90;;;;;;5076033;28;20173;-81
2022/06/29 03:37:44;;;;;;;4.60;4.20;;;14.60;99.90;;;;;;5076437;28;20259;-81
2022/06/29 03:40:10;;;;;;;5.63;4.67;;;14.80;99.90;;;;;;5076341;28;20215;-81
2022/06/29 03:42:36;;;;;;;5.20;4.57;;;14.70;99.90;;;;;;5076334;28;20693;-80
2022/06/29 03:45:02;;;;;;;7.90;4.80;;;14.90;99.90;;;;;;5076291;28;20175;-80
2022/06/29 03:47:27;;;;;;;6.83;5.00;;;14.90;99.90;;;;;;5076453;28;20177;-80
2022/06/29 03:49:53;;;;;;;5.37;4.80;;;14.80;99.90;;;;;;5076419;28;20164;-81
2022/06/29 03:52:19;;;;;;;8.57;5.00;;;14.80;99.90;;;;;;5076069;28;20188;-80
2022/06/29 03:54:44;;;;;;;6.73;5.27;;;14.70;99.90;;;;;;5076614;28;20195;-80
2022/06/29 03:57:10;;;;;;;6.67;5.47;;;14.90;99.90;;;;;;5076001;28;20541;-80
2022/06/29 03:59:36;;;;;;;9.03;5.43;;;14.80;99.90;;;;;;5076291;28;20211;-81
2022/06/29 04:02:02;;;;;;;5.30;4.80;;;14.80;99.90;;;;;;5075816;28;20218;-81
2022/06/29 04:04:27;;;;;;;8.03;4.90;;;14.80;99.90;;;;;;5079688;28;20743;-80
2022/06/29 04:06:53;;;;;;;6.70;4.77;;;14.90;99.90;;;;;;5077775;28;20178;-80
2022/06/29 04:09:19;;;;;;;8.73;5.13;;;14.90;99.90;;;;;;5077581;28;20194;-80
2022/06/29 04:11:54;;;;;;;7.67;5.30;;;14.80;99.90;;;;;;5077458;28;20184;-80
2022/06/29 04:14:23;;;;;;;7.63;5.27;;;14.80;99.90;;;;;;5077401;28;20178;-80
2022/06/29 04:16:50;;;;;;;6.07;5.07;;;14.80;99.90;;;;;;5074932;28;20214;-80
2022/06/29 04:19:15;;;;;;;6.90;5.40;;;14.90;99.90;;;;;;5074516;28;20250;-81
2022/06/29 04:21:41;;;;;;;8.27;5.10;;;14.90;99.90;;;;;;5072325;28;20637;-80
2022/06/29 04:24:07;;;;;;;11.93;4.90;;;14.90;99.90;;;;;;5073421;28;20216;-80
2022/06/29 04:26:33;;;;;;;6.80;4.97;;;14.80;99.90;;;;;;5073676;28;20176;-80
2022/06/29 04:28:59;;;;;;;9.57;5.07;;;14.90;99.90;;;;;;5075755;28;20177;-81
2022/06/29 04:31:25;;;;;;;5.60;4.37;;;14.90;99.90;;;;;;5075482;28;20179;-83
2022/06/29 04:33:50;;;;;;;5.17;4.67;;;14.90;99.90;;;;;;5074549;28;20197;-83
2022/06/29 04:36:16;;;;;;;8.10;4.33;;;15.00;99.90;;;;;;5074707;28;20177;-82
2022/06/29 04:38:42;;;;;;;5.80;4.83;;;15.10;99.90;;;;;;5075975;28;20766;-82
2022/06/29 04:41:08;;;;;;;5.53;4.80;;;15.10;99.90;;;;;;5073660;28;20188;-82
2022/06/29 04:43:33;;;;;;;5.23;4.60;;;15.20;99.90;;;;;;5073799;28;20209;-83
2022/06/29 04:48:43;;;;;;;7.17;4.80;;;15.00;99.90;;;;;;5075918;28;20676;-83
2022/06/29 04:51:10;;;;;;;4.73;4.27;;;15.10;99.90;;;;;;5075629;28;20201;-83
2022/06/29 04:53:35;;;;;;;7.97;4.30;;;15.10;99.90;;;;;;5073938;28;20249;-83
2022/06/29 04:56:01;;;;;;;6.13;4.17;;;15.30;99.90;;;;;;5073918;28;20179;-84
2022/06/29 04:58:26;;;;;;;7.43;3.97;;;15.50;99.90;;;;;;5073817;28;20184;-83
2022/06/29 05:00:52;;;;;;;5.30;3.30;;;15.80;99.90;;;;;;5074014;28;20216;-83
2022/06/29 05:03:18;;;;;;;8.10;3.30;;;16.00;99.90;;;;;;5073399;28;20239;-83
2022/06/29 05:05:44;;;;;;;6.23;3.60;;;16.20;99.90;;;;;;5074506;28;20257;-83
2022/06/29 05:08:10;;;;;;;8.13;3.40;;;16.50;99.90;;;;;;5073165;28;20645;-83
2022/06/29 05:10:36;;;;;;;7.30;3.90;;;16.60;99.90;;;;;;5073409;28;20173;-83
2022/06/29 05:13:02;;;;;;;3.63;3.10;;;17.10;99.90;;;;;;5072787;28;20333;-84
2022/06/29 05:15:27;;;;;;;4.60;3.20;;;17.40;99.90;;;;;;5073414;28;20242;-83
2022/06/29 05:17:53;;;;;;;3.97;2.80;;;17.30;99.90;;;;;;5073274;28;20169;-83
2022/06/29 05:20:21;;;;;;;5.03;2.50;;;17.70;99.90;;;;;;5073309;28;20182;-83
2022/06/29 05:22:48;;;;;;;7.17;3.90;;;18.00;99.90;;;;;;5072860;28;20201;-84
2022/06/29 05:25:14;;;;;;;6.00;3.10;;;17.90;99.90;;;;;;5073612;28;20521;-85
2022/06/29 05:27:39;;;;;;;6.47;2.47;;;18.00;99.90;;;;;;5073078;28;20222;-81
2022/06/29 05:30:05;;;;;;;6.72;2.80;;;18.20;99.90;;;;;;5072539;28;20648;-81
2022/06/29 05:32:31;;;;;;;4.82;2.30;;;18.40;99.90;;;;;;5071909;28;20199;-81
2022/06/29 05:34:57;;;;;;;4.40;2.65;;;18.70;99.90;;;;;;5072806;28;20263;-81
2022/06/29 05:37:22;;;;;;;8.55;2.55;;;18.70;99.90;;;;;;5072992;28;20203;-81
2022/06/29 05:39:48;;;;;;;7.25;2.30;;;18.40;99.90;;;;;;5073531;28;20259;-81
2022/06/29 05:42:14;;;;;;;3.15;2.50;;;18.30;99.90;;;;;;5073248;28;20201;-81
2022/06/29 05:44:41;;;;;;;8.10;2.50;;;18.20;99.90;;;;;;5073421;28;20175;-81
2022/06/29 05:47:07;;;;;;;9.05;2.70;;;18.30;99.90;;;;;;5073183;28;20644;-81
2022/06/29 05:49:34;;;;;;;8.35;2.70;;;18.20;99.90;;;;;;5073626;28;20171;-81
2022/06/29 05:51:59;;;;;;;6.13;2.50;;;18.20;99.90;;;;;;5073184;28;20176;-81
2022/06/29 05:54:25;;;;;;;3.88;2.53;;;18.30;99.90;;;;;;5074730;28;20263;-81
2022/06/29 05:56:51;;;;;;;2.40;2.20;;;18.20;99.90;;;;;;5073534;28;20543;-81
2022/06/29 05:59:17;;;;;;;5.20;2.50;;;18.50;99.90;;;;;;5073342;28;20173;-81
2022/06/29 06:01:42;;;;;;;3.55;2.10;;;18.40;99.90;;;;;;5073578;28;20175;-81
2022/06/29 06:04:08;;;;;;;5.90;2.20;;;18.40;99.90;;;;;;5075518;28;20216;-81
2022/06/29 06:06:33;;;;;;;5.75;2.03;;;18.60;99.90;;;;;;5075143;28;20234;-81
2022/06/29 06:09:00;;;;;;;8.15;2.10;;;18.90;99.90;;;;;;5073598;28;20217;-81
2022/06/29 06:11:26;;;;;;;8.48;2.03;;;19.80;99.90;;;;;;5073563;28;20539;-82
2022/06/29 06:13:51;;;;;;;6.40;2.00;;;20.50;99.90;;;;;;5073564;28;20197;-82
2022/06/29 06:16:17;;;;;;;4.97;2.00;;;20.50;99.90;;;;;;5074056;28;20389;-81
2022/06/29 06:18:43;;;;;;;4.95;1.80;;;20.60;99.90;;;;;;5073854;28;20181;-82
2022/06/29 06:21:08;;;;;;;4.38;2.03;;;20.60;99.90;;;;;;5073627;28;20647;-82
2022/06/29 06:23:34;;;;;;;3.58;1.80;;;20.90;99.90;;;;;;5074677;28;20218;-82
2022/06/29 06:25:59;;;;;;;6.78;2.05;;;21.60;99.90;;;;;;5074116;28;20179;-82
2022/06/29 06:28:25;;;;;;;4.50;1.73;;;21.70;99.90;;;;;;5074220;28;20171;-83
2022/06/29 06:30:51;;;;;;;4.85;1.80;;;21.80;99.30;;;;;;5075310;28;20169;-83
2022/06/29 06:33:16;;;;;;;3.13;1.70;;;22.10;98.90;;;;;;5074047;28;20192;-83
2022/06/29 06:35:42;;;;;;;5.45;2.00;;;22.50;98.20;;;;;;5073625;28;20183;-83
2022/06/29 06:38:07;;;;;;;1.95;1.30;;;22.20;96.50;;;;;;5074174;28;20208;-83
2022/06/29 06:43:17;;;;;;;4.30;1.50;;;23.00;96.10;;;;;;5075802;28;20238;-83
2022/06/29 06:45:43;;;;;;;6.10;1.60;;;22.70;96.50;;;;;;5077801;28;20582;-84
2022/06/29 06:48:08;;;;;;;3.05;1.60;;;23.40;95.60;;;;;;5079232;28;20183;-84
2022/06/29 06:50:34;;;;;;;1.58;1.45;;;23.50;94.90;;;;;;5079028;28;20169;-85
2022/06/29 06:53:01;;;;;;;6.30;1.90;;;23.70;94.50;;;;;;5077820;28;20698;-84
2022/06/29 06:55:29;;;;;;;4.95;1.75;;;24.10;94.10;;;;;;5078863;28;20172;-83
2022/06/29 06:57:55;;;;;;;6.05;1.70;;;23.70;93.50;;;;;;5079524;28;20169;-85
2022/06/29 07:00:21;;;;;;;6.28;1.65;;;23.00;93.20;;;;;;5079473;28;20173;-84
2022/06/29 07:02:46;;;;;;;4.20;1.70;;;23.10;95.00;;;;;;5077743;28;20204;-84
2022/06/29 07:05:12;;;;;;;6.03;1.75;;;22.70;94.00;;;;;;5077277;28;20176;-84
2022/06/29 07:07:38;;;;;;;6.55;2.28;;;22.80;94.90;;;;;;5076694;28;20590;-83
2022/06/29 07:10:04;;;;;;;2.65;1.58;;;22.70;94.10;;;;;;5075730;28;20172;-83
2022/06/29 07:12:30;;;;;;;1.88;1.70;;;22.70;94.50;;;;;;5075979;28;20196;-83
2022/06/29 07:14:55;;;;;;;4.55;1.88;;;22.60;94.40;;;;;;5075819;28;20260;-83
2022/06/29 07:17:21;;;;;;;2.45;1.73;;;23.20;94.60;;;;;;5076076;28;20247;-82
2022/06/29 07:19:47;;;;;;;2.15;1.60;;;23.20;94.50;;;;;;5075448;28;20173;-81
2022/06/29 07:22:12;;;;;;;2.80;1.77;;;23.50;94.30;;;;;;5076493;28;20195;-81
2022/06/29 07:24:38;;;;;;;1.80;1.70;;;23.50;92.10;;;;;;5076509;28;20172;-81
2022/06/29 07:27:04;;;;;;;3.13;1.73;;;23.40;93.40;;;;;;5075468;28;20172;-82
2022/06/29 07:29:29;;;;;;;1.70;1.50;;;23.60;93.80;;;;;;5076462;28;20181;-83
2022/06/29 07:31:55;;;;;;;4.43;1.75;;;23.10;92.40;;;;;;5074963;28;20543;-83
2022/06/29 07:34:20;;;;;;;2.75;1.77;;;23.20;92.30;;;;;;5075079;28;20255;-82
2022/06/29 07:36:46;;;;;;;4.72;1.92;;;23.10;92.40;;;;;;5075562;28;20856;-83
2022/06/29 07:39:12;;;;;;;9.20;2.08;;;23.10;92.40;;;;;;5075044;28;20187;-83
2022/06/29 07:41:37;;;;;;;2.63;1.80;;;23.20;92.60;;;;;;5072921;22;20247;-81
2022/06/29 07:44:06;;;;;;;7.85;1.70;;;23.30;92.70;;;;;;5056067;28;20676;-83
2022/06/29 07:46:32;;;;;;;5.97;1.70;;;23.40;92.60;;;;;;5056036;28;20170;-81
2022/06/29 07:48:58;;;;;;;4.47;1.73;;;23.50;92.30;;;;;;5056088;28;20211;-80
2022/06/29 07:51:23;;;;;;;4.85;1.80;;;23.30;92.80;;;;;;5055211;28;20195;-81
2022/06/29 07:53:49;;;;;;;7.22;2.55;;;23.40;92.60;;;;;;5054882;28;20205;-81
2022/06/29 07:56:15;;;;;;;1.98;1.88;;;23.50;92.90;;;;;;5055464;28;20180;-79
2022/06/29 07:58:40;;;;;;;2.22;2.03;;;23.00;92.70;;;;;;5055571;28;20184;-81
2022/06/29 08:01:06;;;;;;;4.25;2.05;;;23.00;92.60;;;;;;5053949;28;20185;-79
2022/06/29 08:03:32;;;;;;;2.90;1.75;;;22.80;93.40;;;;;;5053343;28;20343;-80
2022/06/29 08:06:01;;;;;;;6.63;2.00;;;22.70;93.10;;;;;;5053875;28;20789;-80
2022/06/29 08:08:28;;;;;;;3.53;1.95;;;22.70;93.60;;;;;;5053578;28;20173;-81
2022/06/29 08:10:54;;;;;;;3.55;1.77;;;22.70;92.80;;;;;;5053483;28;20192;-80
2022/06/29 08:13:19;;;;;;;2.10;1.90;;;22.60;93.30;;;;;;5052927;28;20190;-81
2022/06/29 08:15:45;;;;;;;2.45;1.98;;;22.40;93.20;;;;;;5054142;28;20269;-80
2022/06/29 08:18:12;;;;;;;5.32;2.10;;;22.30;93.50;;;;;;5054651;28;20197;-79
2022/06/29 08:20:38;;;;;;;4.95;2.22;;;22.40;94.30;;;;;;5055570;28;20227;-80
2022/06/29 08:23:04;;;;;;;2.85;1.98;;;22.40;94.10;;;;;;5054634;28;20204;-81
2022/06/29 08:25:31;;;;;;;5.07;2.25;;;22.60;93.70;;;;;;5055355;28;20849;-81
2022/06/29 08:27:58;;;;;;;4.60;2.50;;;22.50;95.20;;;;;;5055794;28;20265;-80
2022/06/29 08:30:23;;;;;;;3.28;1.85;;;22.50;94.10;;;;;;5054544;28;20180;-79
2022/06/29 08:32:50;;;;;;;6.75;2.10;;;22.60;94.10;;;;;;5056406;28;20197;-80
2022/06/29 08:35:17;;;;;;;3.58;2.30;;;22.40;94.10;;;;;;5056744;28;20181;-81
2022/06/29 08:37:45;;;;;;;5.70;2.15;;;22.40;94.40;;;;;;5054146;28;20177;-79
2022/06/29 08:40:16;;;;;;;3.15;2.00;;;22.40;95.10;;;;;;5053588;28;20181;-80
2022/06/29 08:42:42;;;;;;;3.88;2.20;;;22.50;95.00;;;;;;5053090;28;20193;-78
2022/06/29 08:45:10;;;;;;;5.00;1.85;;;22.60;94.80;;;;;;5053600;28;20531;-80
2022/06/29 08:47:36;;;;;;;6.72;2.15;;;22.80;95.00;;;;;;5053287;28;20638;-78
2022/06/29 08:50:06;;;;;;;5.13;1.98;;;22.80;95.60;;;;;;5053157;28;20183;-79
2022/06/29 08:52:35;;;;;;;3.45;2.00;;;22.70;95.10;;;;;;5052842;28;20266;-80
2022/06/29 08:55:05;;;;;;;6.15;2.10;;;22.70;95.00;;;;;;5053254;28;20222;-80
2022/06/29 08:57:35;;;;;;;3.22;2.10;;;22.70;94.90;;;;;;5053850;28;20231;-80
2022/06/29 09:00:01;;;;;;;5.20;2.10;;;22.60;94.70;;;;;;5054120;28;20690;-80
2022/06/29 09:02:27;;;;;;;2.30;2.10;;;22.50;94.70;;;;;;5054978;28;20284;-78
2022/06/29 09:04:54;;;;;;;4.13;2.15;;;22.70;95.70;;;;;;5053632;28;20256;-80
2022/06/29 09:07:20;;;;;;;5.68;2.30;;;22.50;95.50;;;;;;5053137;28;20537;-78
2022/06/29 09:10:11;;;;;;;6.47;2.15;;;22.60;95.80;;;;;;5052845;28;20264;-80
2022/06/29 09:12:37;;;;;;;5.72;2.30;;;22.60;95.60;;;;;;5052627;28;20193;-80
2022/06/29 09:15:07;;;;;;;5.25;2.20;;;22.60;95.60;;;;;;5052937;28;20661;-79
2022/06/29 09:17:34;;;;;;;4.95;2.30;;;22.80;96.20;;;;;;5053577;28;20185;-80
2022/06/29 09:20:00;;;;;;;4.90;2.40;;;22.70;95.10;;;;;;5053502;28;20188;-78
2022/06/29 09:22:26;;;;;;;3.38;2.40;;;22.70;95.50;;;;;;5052679;28;20196;-80
2022/06/29 09:24:52;;;;;;;8.32;2.30;;;22.80;95.10;;;;;;5053501;28;20591;-80
2022/06/29 09:27:18;;;;;;;3.67;2.50;;;23.00;95.70;;;;;;5053521;28;20174;-78
2022/06/29 09:29:45;;;;;;;8.38;2.40;;;22.90;95.00;;;;;;5053173;28;20549;-81
2022/06/29 09:32:19;;;;;;;4.78;2.50;;;23.00;96.10;;;;;;5053104;28;20192;-80
2022/06/29 09:34:52;;;;;;;2.67;2.15;;;23.20;95.40;;;;;;5053633;28;20170;-79
2022/06/29 09:37:22;;;;;;;8.63;2.58;;;23.10;96.30;;;;;;5054065;28;20177;-79
2022/06/29 09:39:51;;;;;;;4.13;2.40;;;23.10;95.40;;;;;;5054388;28;20165;-78
2022/06/29 09:42:27;;;;;;;4.88;2.40;;;23.00;94.70;;;;;;5054532;28;20205;-80
2022/06/29 09:44:53;;;;;;;7.20;2.55;;;22.90;95.10;;;;;;5055209;28;20263;-80
2022/06/29 09:47:21;;;;;;;4.15;2.50;;;23.00;96.20;;;;;;5054700;28;20256;-79
2022/06/29 09:49:56;;;;;;;3.95;2.50;;;23.00;94.50;;;;;;5055810;28;20208;-79
2022/06/29 09:52:24;;;;;;;2.95;2.50;;;23.10;95.20;;;;;;5055574;28;20197;-80
2022/06/29 09:54:58;;;;;;;3.47;2.35;;;23.20;95.20;;;;;;5055512;28;20179;-80
2022/06/29 09:57:28;;;;;;;3.75;2.40;;;23.30;95.50;;;;;;5055989;28;20174;-80
2022/06/29 10:02:49;;;;;;;4.30;2.80;;;23.30;95.40;;;;;;5057246;28;20204;-79
2022/06/29 10:05:16;;;;;;;4.70;2.80;;;23.40;95.70;;;;;;5055445;28;20182;-79
2022/06/29 10:07:51;;;;;;;10.00;3.17;;;23.50;96.40;;;;;;5055077;28;20173;-81
2022/06/29 10:10:23;;;;;;;4.15;3.15;;;23.60;95.70;;;;;;5055023;28;20570;-80
2022/06/29 10:16:00;;;;;;;5.28;2.78;;;24.00;97.20;;;;;;5057380;28;20223;-80
2022/06/29 10:18:47;;;;;;;5.78;3.10;;;23.80;95.80;;;;;;5054931;28;20180;-81
2022/06/29 10:21:22;;;;;;;5.45;2.88;;;23.70;94.80;;;;;;5054447;28;20187;-80
2022/06/29 10:23:50;;;;;;;6.07;3.35;;;23.60;95.30;;;;;;5055005;28;20213;-79
2022/06/29 10:29:05;;;;;;;4.15;2.97;;;23.80;95.50;;;;;;5060795;28;20527;-79
2022/06/29 10:31:59;;;;;;;3.30;2.90;;;23.50;94.90;;;;;;5055275;28;20223;-80
2022/06/29 10:34:31;;;;;;;10.85;3.03;;;23.60;95.10;;;;;;5069389;28;20177;-80
2022/06/29 10:37:05;;;;;;;3.75;3.00;;;23.50;95.70;;;;;;5072382;28;20161;-79
2022/06/29 10:39:43;;;;;;;6.15;3.28;;;23.30;95.00;;;;;;5068596;28;20225;-78
2022/06/29 10:45:33;;;;;;;7.47;3.58;;;23.60;95.90;;;;;;5065506;28;20188;-80
2022/06/29 10:48:01;;;;;;;4.22;3.33;;;23.50;94.70;;;;;;5060479;28;20168;-81
2022/06/29 10:50:31;;;;;;;2.95;2.75;;;23.60;95.00;;;;;;5067309;28;20234;-80
2022/06/29 10:53:18;;;;;;;4.80;3.20;;;23.60;95.40;;;;;;5072478;28;20199;-80
2022/06/29 10:55:48;;;;;;;4.90;3.00;;;23.70;96.00;;;;;;5075253;28;20162;-80
2022/06/29 10:58:14;;;;;;;5.05;3.28;;;23.90;95.00;;;;;;5062637;28;20181;-81
2022/06/29 11:00:54;;;;;;;4.32;3.35;;;23.70;94.60;;;;;;5051717;28;20680;-80
2022/06/29 11:03:21;;;;;;;3.83;3.00;;;23.70;95.30;;;;;;5052286;28;20197;-81
2022/06/29 11:14:05;;;;;;;7.55;3.35;;;23.90;95.70;;;;;;5050589;28;20680;-77
2022/06/29 11:16:34;;;;;;;9.15;3.40;;;24.00;95.20;;;;;;5049104;28;20178;-76
2022/06/29 11:19:00;;;;;;;5.68;3.08;;;24.00;95.90;;;;;;5048527;28;20247;-81
2022/06/29 11:21:28;;;;;;;4.82;3.42;;;23.90;95.30;;;;;;5049837;28;20177;-78
2022/06/29 11:24:04;;;;;;;4.85;3.50;;;23.80;95.30;;;;;;5049891;28;20274;-83
2022/06/29 11:26:34;;;;;;;4.22;3.60;;;23.90;95.50;;;;;;5052881;28;20165;-82
2022/06/29 11:29:01;;;;;;;5.88;3.50;;;24.30;96.50;;;;;;5052983;28;20169;-79
2022/06/29 11:31:27;;;;;;;5.60;3.80;;;24.10;94.90;;;;;;5053041;28;20170;-80
2022/06/29 11:33:54;;;;;;;7.32;3.30;;;24.10;95.30;;;;;;5053235;28;20354;-80
2022/06/29 11:36:28;;;;;;;4.45;3.75;;;24.20;95.20;;;;;;5053821;28;20184;-79
2022/06/29 11:39:04;;;;;;;3.78;3.40;;;24.30;95.40;;;;;;5052951;28;20231;-82
2022/06/29 11:44:27;;;;;;;3.45;3.15;;;24.40;94.60;;;;;;5058318;28;20245;-84
2022/06/29 11:46:54;;;;;;;10.75;3.53;;;24.30;95.10;;;;;;5059194;28;20652;-84
2022/06/29 11:49:53;;;;;;;4.15;3.53;;;24.30;95.10;;;;;;5055507;28;20177;-81
2022/06/29 11:52:13;;;;;;;4.72;3.53;;;24.40;94.90;;;;;;5057253;28;20220;-81
2022/06/29 11:54:50;;;;;;;4.53;3.58;;;24.40;95.60;;;;;;5056317;28;20640;-81
2022/06/29 11:57:18;;;;;;;8.15;3.40;;;24.30;94.40;;;;;;5057347;28;20634;-81
2022/06/29 11:59:45;;;;;;;5.25;3.58;;;24.40;94.70;;;;;;5058807;28;20177;-82
2022/06/29 12:02:12;;;;;;;3.92;3.53;;;24.30;95.10;;;;;;5058085;28;20197;-82
2022/06/29 12:04:40;;;;;;;3.88;3.20;;;24.30;95.30;;;;;;5055721;28;20197;-82
2022/06/29 12:07:11;;;;;;;6.20;3.58;;;24.50;95.00;;;;;;5056645;28;20276;-81
2022/06/29 12:09:39;;;;;;;4.75;3.38;;;24.50;95.20;;;;;;5057959;28;20166;-82
2022/06/29 12:12:09;;;;;;;4.53;3.65;;;24.50;95.20;;;;;;5056994;28;20215;-82
2022/06/29 12:14:37;;;;;;;5.10;3.55;;;24.50;95.40;;;;;;5057104;28;20178;-81
2022/06/29 12:17:04;;;;;;;3.90;3.50;;;24.60;94.70;;;;;;5056940;28;20575;-81
2022/06/29 12:19:29;;;;;;;5.65;3.72;;;24.60;95.30;;;;;;5055082;28;20645;-81
2022/06/29 12:21:57;;;;;;;4.30;3.90;;;24.80;95.00;;;;;;5056025;28;20185;-82
2022/06/29 12:24:23;;;;;;;7.43;4.75;;;24.90;94.30;;;;;;5056765;28;20603;-82
2022/06/29 12:26:49;;;;;;;5.63;3.90;;;24.90;94.20;;;;;;5054832;28;20212;-83
2022/06/29 12:29:15;;;;;;;4.95;3.85;;;24.90;95.00;;;;;;5058963;28;20165;-82
2022/06/29 12:31:44;;;;;;;7.40;4.13;;;24.90;94.90;;;;;;5057018;28;20675;-84
2022/06/29 12:34:11;;;;;;;8.70;4.30;;;24.70;94.70;;;;;;5055049;28;20193;-82
2022/06/29 12:36:36;;;;;;;6.40;4.05;;;24.50;95.90;;;;;;5060125;28;20207;-84
2022/06/29 12:39:03;;;;;;;6.15;4.03;;;24.50;95.70;;;;;;5056305;28;20576;-84
2022/06/29 12:41:28;;;;;;;4.60;4.20;;;24.50;95.10;;;;;;5052990;28;20200;-83
2022/06/29 12:43:54;;;;;;;7.05;4.20;;;24.30;95.30;;;;;;5056081;28;20235;-83
2022/06/29 12:46:20;;;;;;;5.10;4.30;;;24.30;95.80;;;;;;5055170;28;20182;-82
2022/06/29 12:48:45;;;;;;;5.07;4.57;;;24.20;95.40;;;;;;5054901;28;20176;-83
2022/06/29 12:51:11;;;;;;;7.53;4.95;;;24.30;95.80;;;;;;5053867;28;20174;-84
2022/06/29 12:53:37;;;;;;;18.40;4.35;;;24.40;95.40;;;;;;5054509;28;20197;-81
2022/06/29 12:56:04;;;;;;;13.55;4.40;;;24.30;95.20;;;;;;5054816;28;20586;-81
2022/06/29 12:58:29;;;;;;;12.68;4.70;;;24.30;95.80;;;;;;5052742;28;20613;-84
2022/06/29 13:00:55;;;;;;;9.98;4.32;;;24.50;96.00;;;;;;5051653;28;20236;-81
2022/06/29 13:03:21;;;;;;;4.40;3.97;;;24.50;96.30;;;;;;5051488;28;20212;-80
2022/06/29 13:05:47;;;;;;;5.22;4.25;;;24.60;97.10;;;;;;5051730;28;20173;-83
2022/06/29 13:08:13;;;;;;;4.60;4.20;;;24.50;95.90;;;;;;5052892;28;20177;-83
2022/06/29 13:10:39;;;;;;;7.03;4.05;;;24.50;95.80;;;;;;5051803;28;20544;-82
2022/06/29 13:13:05;;;;;;;9.38;4.35;;;24.60;96.00;;;;;;5051694;28;20193;-82
2022/06/29 13:15:30;;;;;;;7.07;4.30;;;24.60;96.00;;;;;;5051854;28;20181;-84
2022/06/29 13:17:56;;;;;;;8.77;4.53;;;24.80;96.40;;;;;;5051144;28;20174;-84